sensor_id;sensor_type;location;lat;lon;timestamp;temperature;humidity
13896;DHT22;7018;50.838;4.226;2022-07-23T00:00:17;16.50;99.90
13896;DHT22;7018;50.838;4.226;2022-07-23T00:02:45;16.40;99.90
13896;DHT22;7018;50.838;4.226;2022-07-23T00:05:12;16.40;99.90
13896;DHT22;7018;50.838;4.226;2022-07-23T00:07:40;16.30;99.90
13896;DHT22;7018;50.838;4.226;2022-07-23T00:10:07;16.20;99.90
13896;DHT22;7018;50.838;4.226;2022-07-23T00:12:35;16.30;99.90
13896;DHT22;7018;50.838;4.226;2022-07-23T00:15:04;16.30;99.90
13896;DHT22;7018;50.838;4.226;2022-07-23T00:17:31;16.30;99.90
13896;DHT22;7018;50.838;4.226;2022-07-23T00:19:59;16.30;99.90
13896;DHT22;7018;50.838;4.226;2022-07-23T00:22:26;16.30;99.90
13896;DHT22;7018;50.838;4.226;2022-07-23T00:24:56;16.20;99.90
13896;DHT22;7018;50.838;4.226;2022-07-23T00:27:36;16.30;99.90
13896;DHT22;7018;50.838;4.226;2022-07-23T00:30:03;16.30;99.90
13896;DHT22;7018;50.838;4.226;2022-07-23T00:32:31;16.30;99.90
13896;DHT22;7018;50.838;4.226;2022-07-23T00:35:21;16.30;99.90
13896;DHT22;7018;50.838;4.226;2022-07-23T00:37:48;16.30;99.90
13896;DHT22;7018;50.838;4.226;2022-07-23T00:40:16;16.20;99.90
13896;DHT22;7018;50.838;4.226;2022-07-23T00:42:43;16.20;99.90
13896;DHT22;7018;50.838;4.226;2022-07-23T00:45:11;16.10;99.90
13896;DHT22;7018;50.838;4.226;2022-07-23T00:47:38;16.10;99.90
13896;DHT22;7018;50.838;4.226;2022-07-23T00:50:07;16.10;99.90
13896;DHT22;7018;50.838;4.226;2022-07-23T00:52:35;16.10;99.90
13896;DHT22;7018;50.838;4.226;2022-07-23T00:55:04;16.00;99.90
13896;DHT22;7018;50.838;4.226;2022-07-23T00:57:31;16.00;99.90
13896;DHT22;7018;50.838;4.226;2022-07-23T00:59:58;16.00;99.90
13896;DHT22;7018;50.838;4.226;2022-07-23T01:02:26;16.00;99.90
13896;DHT22;7018;50.838;4.226;2022-07-23T01:04:54;16.00;99.90
13896;DHT22;7018;50.838;4.226;2022-07-23T01:07:21;15.90;99.90
13896;DHT22;7018;50.838;4.226;2022-07-23T01:09:49;15.90;99.90
13896;DHT22;7018;50.838;4.226;2022-07-23T01:12:18;15.90;99.90
13896;DHT22;7018;50.838;4.226;2022-07-23T01:14:45;15.90;99.90
13896;DHT22;7018;50.838;4.226;2022-07-23T01:17:12;15.90;99.90
13896;DHT22;7018;50.838;4.226;2022-07-23T01:19:40;15.90;99.90
13896;DHT22;7018;50.838;4.226;2022-07-23T01:22:07;15.90;99.90
13896;DHT22;7018;50.838;4.226;2022-07-23T01:24:35;15.90;99.90
13896;DHT22;7018;50.838;4.226;2022-07-23T01:27:02;15.80;99.90
13896;DHT22;7018;50.838;4.226;2022-07-23T01:29:33;15.80;99.90
13896;DHT22;7018;50.838;4.226;2022-07-23T01:32:00;15.70;99.90
13896;DHT22;7018;50.838;4.226;2022-07-23T01:34:27;15.70;99.90
13896;DHT22;7018;50.838;4.226;2022-07-23T01:36:54;15.70;99.90
13896;DHT22;7018;50.838;4.226;2022-07-23T01:39:22;15.80;99.90
13896;DHT22;7018;50.838;4.226;2022-07-23T01:41:49;15.70;99.90
13896;DHT22;7018;50.838;4.226;2022-07-23T01:44:16;15.60;99.90
13896;DHT22;7018;50.838;4.226;2022-07-23T01:46:43;15.70;99.90
13896;DHT22;7018;50.838;4.226;2022-07-23T01:49:11;15.70;99.90
13896;DHT22;7018;50.838;4.226;2022-07-23T01:51:38;15.60;99.90
13896;DHT22;7018;50.838;4.226;2022-07-23T01:54:29;15.50;99.90
13896;DHT22;7018;50.838;4.226;2022-07-23T01:56:56;15.50;99.90
13896;DHT22;7018;50.838;4.226;2022-07-23T01:59:23;15.60;99.90
13896;DHT22;7018;50.838;4.226;2022-07-23T02:01:51;15.70;99.90
13896;DHT22;7018;50.838;4.226;2022-07-23T02:04:22;15.60;99.90
13896;DHT22;7018;50.838;4.226;2022-07-23T02:06:50;15.60;99.90
13896;DHT22;7018;50.838;4.226;2022-07-23T02:09:18;15.60;99.90
13896;DHT22;7018;50.838;4.226;2022-07-23T02:11:46;15.50;99.90
13896;DHT22;7018;50.838;4.226;2022-07-23T02:14:13;15.50;99.90
13896;DHT22;7018;50.838;4.226;2022-07-23T02:16:41;15.50;99.90
13896;DHT22;7018;50.838;4.226;2022-07-23T02:19:08;15.50;99.90
13896;DHT22;7018;50.838;4.226;2022-07-23T02:21:35;15.40;99.90
13896;DHT22;7018;50.838;4.226;2022-07-23T02:24:03;15.40;99.90
13896;DHT22;7018;50.838;4.226;2022-07-23T02:26:30;15.40;99.90
13896;DHT22;7018;50.838;4.226;2022-07-23T02:29:01;15.30;99.90
13896;DHT22;7018;50.838;4.226;2022-07-23T02:31:29;15.30;99.90
13896;DHT22;7018;50.838;4.226;2022-07-23T02:33:56;15.20;99.90
13896;DHT22;7018;50.838;4.226;2022-07-23T02:36:23;15.30;99.90
13896;DHT22;7018;50.838;4.226;2022-07-23T02:38:50;15.30;99.90
13896;DHT22;7018;50.838;4.226;2022-07-23T02:41:18;15.20;99.90
13896;DHT22;7018;50.838;4.226;2022-07-23T02:43:45;15.30;99.90
13896;DHT22;7018;50.838;4.226;2022-07-23T02:46:12;15.30;99.90
13896;DHT22;7018;50.838;4.226;2022-07-23T02:48:40;15.20;99.90
13896;DHT22;7018;50.838;4.226;2022-07-23T02:51:08;15.20;99.90
13896;DHT22;7018;50.838;4.226;2022-07-23T02:53:35;15.20;99.90
13896;DHT22;7018;50.838;4.226;2022-07-23T02:56:02;15.20;99.90
13896;DHT22;7018;50.838;4.226;2022-07-23T02:58:30;15.20;99.90
13896;DHT22;7018;50.838;4.226;2022-07-23T03:00:57;15.10;99.90
13896;DHT22;7018;50.838;4.226;2022-07-23T03:03:24;15.10;99.90
13896;DHT22;7018;50.838;4.226;2022-07-23T03:05:55;15.10;99.90
13896;DHT22;7018;50.838;4.226;2022-07-23T03:08:22;15.10;99.90
13896;DHT22;7018;50.838;4.226;2022-07-23T03:10:50;15.20;99.90
13896;DHT22;7018;50.838;4.226;2022-07-23T03:13:17;15.10;99.90
13896;DHT22;7018;50.838;4.226;2022-07-23T03:15:44;15.10;99.90
13896;DHT22;7018;50.838;4.226;2022-07-23T03:18:12;15.20;99.90
13896;DHT22;7018;50.838;4.226;2022-07-23T03:20:39;15.10;99.90
13896;DHT22;7018;50.838;4.226;2022-07-23T03:23:06;15.10;99.90
13896;DHT22;7018;50.838;4.226;2022-07-23T03:25:33;15.10;99.90
13896;DHT22;7018;50.838;4.226;2022-07-23T03:28:01;15.00;99.90
13896;DHT22;7018;50.838;4.226;2022-07-23T03:30:29;15.10;99.90
13896;DHT22;7018;50.838;4.226;2022-07-23T03:32:56;15.10;99.90
13896;DHT22;7018;50.838;4.226;2022-07-23T03:35:23;15.00;99.90
13896;DHT22;7018;50.838;4.226;2022-07-23T03:37:51;15.00;99.90
13896;DHT22;7018;50.838;4.226;2022-07-23T03:40:18;15.00;99.90
13896;DHT22;7018;50.838;4.226;2022-07-23T03:42:46;15.00;99.90
13896;DHT22;7018;50.838;4.226;2022-07-23T03:45:13;15.20;99.90
13896;DHT22;7018;50.838;4.226;2022-07-23T03:47:40;15.10;99.90
13896;DHT22;7018;50.838;4.226;2022-07-23T03:50:07;15.20;99.90
13896;DHT22;7018;50.838;4.226;2022-07-23T03:52:35;15.30;99.90
13896;DHT22;7018;50.838;4.226;2022-07-23T03:55:02;15.20;99.90
13896;DHT22;7018;50.838;4.226;2022-07-23T03:57:30;15.10;99.90
13896;DHT22;7018;50.838;4.226;2022-07-23T03:59:58;15.10;99.90
13896;DHT22;7018;50.838;4.226;2022-07-23T04:02:25;15.10;99.90
13896;DHT22;7018;50.838;4.226;2022-07-23T04:04:53;15.00;99.90
13896;DHT22;7018;50.838;4.226;2022-07-23T04:07:20;14.80;99.90
13896;DHT22;7018;50.838;4.226;2022-07-23T04:09:49;14.60;99.90
13896;DHT22;7018;50.838;4.226;2022-07-23T04:12:17;14.60;99.90
13896;DHT22;7018;50.838;4.226;2022-07-23T04:14:44;14.50;99.90
13896;DHT22;7018;50.838;4.226;2022-07-23T04:17:12;14.40;99.90
13896;DHT22;7018;50.838;4.226;2022-07-23T04:19:39;14.30;99.90
13896;DHT22;7018;50.838;4.226;2022-07-23T04:22:08;14.30;99.90
13896;DHT22;7018;50.838;4.226;2022-07-23T04:24:35;14.30;99.90
13896;DHT22;7018;50.838;4.226;2022-07-23T04:27:02;14.50;99.90
13896;DHT22;7018;50.838;4.226;2022-07-23T04:29:30;14.70;99.90
13896;DHT22;7018;50.838;4.226;2022-07-23T04:31:57;14.70;99.90
13896;DHT22;7018;50.838;4.226;2022-07-23T04:34:24;14.70;99.90
13896;DHT22;7018;50.838;4.226;2022-07-23T04:36:53;14.80;99.90
13896;DHT22;7018;50.838;4.226;2022-07-23T04:39:21;14.80;99.90
13896;DHT22;7018;50.838;4.226;2022-07-23T04:41:48;14.80;99.90
13896;DHT22;7018;50.838;4.226;2022-07-23T04:44:15;14.80;99.90
13896;DHT22;7018;50.838;4.226;2022-07-23T04:46:45;14.70;99.90
13896;DHT22;7018;50.838;4.226;2022-07-23T04:49:13;14.70;99.90
13896;DHT22;7018;50.838;4.226;2022-07-23T04:51:40;14.70;99.90
13896;DHT22;7018;50.838;4.226;2022-07-23T04:54:07;14.90;99.90
13896;DHT22;7018;50.838;4.226;2022-07-23T04:56:47;14.90;99.90
13896;DHT22;7018;50.838;4.226;2022-07-23T04:59:14;15.10;99.90
13896;DHT22;7018;50.838;4.226;2022-07-23T05:01:41;15.20;99.90
13896;DHT22;7018;50.838;4.226;2022-07-23T05:04:08;15.50;99.90
13896;DHT22;7018;50.838;4.226;2022-07-23T05:06:35;15.50;99.90
13896;DHT22;7018;50.838;4.226;2022-07-23T05:09:02;15.60;99.90
13896;DHT22;7018;50.838;4.226;2022-07-23T05:11:30;15.80;99.90
13896;DHT22;7018;50.838;4.226;2022-07-23T05:13:57;15.80;99.90
13896;DHT22;7018;50.838;4.226;2022-07-23T05:16:25;15.90;99.90
13896;DHT22;7018;50.838;4.226;2022-07-23T05:18:53;15.90;99.90
13896;DHT22;7018;50.838;4.226;2022-07-23T05:21:21;15.90;99.90
13896;DHT22;7018;50.838;4.226;2022-07-23T05:23:48;16.00;99.90
13896;DHT22;7018;50.838;4.226;2022-07-23T05:26:15;15.90;99.90
13896;DHT22;7018;50.838;4.226;2022-07-23T05:28:43;15.80;99.90
13896;DHT22;7018;50.838;4.226;2022-07-23T05:31:13;15.80;99.90
13896;DHT22;7018;50.838;4.226;2022-07-23T05:33:40;15.90;99.90
13896;DHT22;7018;50.838;4.226;2022-07-23T05:36:07;16.00;99.90
13896;DHT22;7018;50.838;4.226;2022-07-23T05:38:35;15.90;99.90
13896;DHT22;7018;50.838;4.226;2022-07-23T05:41:03;16.00;99.90
13896;DHT22;7018;50.838;4.226;2022-07-23T05:43:30;16.10;99.90
13896;DHT22;7018;50.838;4.226;2022-07-23T05:45:57;16.10;99.90
13896;DHT22;7018;50.838;4.226;2022-07-23T05:48:24;16.30;99.90
13896;DHT22;7018;50.838;4.226;2022-07-23T05:50:52;16.40;99.90
13896;DHT22;7018;50.838;4.226;2022-07-23T05:53:19;16.50;99.90
13896;DHT22;7018;50.838;4.226;2022-07-23T05:55:47;16.60;99.90
13896;DHT22;7018;50.838;4.226;2022-07-23T05:58:14;16.70;99.90
13896;DHT22;7018;50.838;4.226;2022-07-23T06:00:41;16.90;99.90
13896;DHT22;7018;50.838;4.226;2022-07-23T06:03:08;17.00;99.90
13896;DHT22;7018;50.838;4.226;2022-07-23T06:05:36;17.10;99.90
13896;DHT22;7018;50.838;4.226;2022-07-23T06:08:04;17.20;99.90
13896;DHT22;7018;50.838;4.226;2022-07-23T06:10:31;17.30;99.90
13896;DHT22;7018;50.838;4.226;2022-07-23T06:12:59;17.30;99.90
13896;DHT22;7018;50.838;4.226;2022-07-23T06:15:28;17.40;99.90
13896;DHT22;7018;50.838;4.226;2022-07-23T06:17:55;17.50;99.90
13896;DHT22;7018;50.838;4.226;2022-07-23T06:20:23;17.60;99.90
13896;DHT22;7018;50.838;4.226;2022-07-23T06:22:50;17.70;99.90
13896;DHT22;7018;50.838;4.226;2022-07-23T06:25:17;17.70;99.90
13896;DHT22;7018;50.838;4.226;2022-07-23T06:27:46;17.80;99.90
13896;DHT22;7018;50.838;4.226;2022-07-23T06:30:13;17.80;99.90
13896;DHT22;7018;50.838;4.226;2022-07-23T06:32:40;17.90;99.90
13896;DHT22;7018;50.838;4.226;2022-07-23T06:35:08;18.00;99.90
13896;DHT22;7018;50.838;4.226;2022-07-23T06:37:35;18.20;99.90
13896;DHT22;7018;50.838;4.226;2022-07-23T06:40:03;18.20;99.90
13896;DHT22;7018;50.838;4.226;2022-07-23T06:42:30;18.30;99.90
13896;DHT22;7018;50.838;4.226;2022-07-23T06:44:58;18.40;99.90
13896;DHT22;7018;50.838;4.226;2022-07-23T06:47:26;18.50;99.90
13896;DHT22;7018;50.838;4.226;2022-07-23T06:49:53;18.50;99.90
13896;DHT22;7018;50.838;4.226;2022-07-23T06:52:20;18.50;99.90
13896;DHT22;7018;50.838;4.226;2022-07-23T06:54:48;18.70;99.90
13896;DHT22;7018;50.838;4.226;2022-07-23T06:57:15;18.70;99.90
13896;DHT22;7018;50.838;4.226;2022-07-23T06:59:43;18.70;99.90
13896;DHT22;7018;50.838;4.226;2022-07-23T07:02:10;18.80;99.90
13896;DHT22;7018;50.838;4.226;2022-07-23T07:04:37;18.70;99.90
13896;DHT22;7018;50.838;4.226;2022-07-23T07:07:05;18.80;99.90
13896;DHT22;7018;50.838;4.226;2022-07-23T07:09:32;19.00;99.90
13896;DHT22;7018;50.838;4.226;2022-07-23T07:11:59;19.10;99.90
13896;DHT22;7018;50.838;4.226;2022-07-23T07:14:27;19.30;99.90
13896;DHT22;7018;50.838;4.226;2022-07-23T07:16:54;19.40;99.90
13896;DHT22;7018;50.838;4.226;2022-07-23T07:19:21;19.50;99.90
13896;DHT22;7018;50.838;4.226;2022-07-23T07:21:49;19.60;99.90
13896;DHT22;7018;50.838;4.226;2022-07-23T07:24:16;19.70;99.90
13896;DHT22;7018;50.838;4.226;2022-07-23T07:26:43;19.80;99.90
13896;DHT22;7018;50.838;4.226;2022-07-23T07:29:10;19.90;99.90
13896;DHT22;7018;50.838;4.226;2022-07-23T07:31:38;19.90;99.90
13896;DHT22;7018;50.838;4.226;2022-07-23T07:34:05;20.00;99.90
13896;DHT22;7018;50.838;4.226;2022-07-23T07:36:32;20.10;99.90
13896;DHT22;7018;50.838;4.226;2022-07-23T07:38:59;20.20;99.90
13896;DHT22;7018;50.838;4.226;2022-07-23T07:41:27;20.20;99.90
13896;DHT22;7018;50.838;4.226;2022-07-23T07:43:54;20.20;99.90
13896;DHT22;7018;50.838;4.226;2022-07-23T07:46:21;20.30;99.90
13896;DHT22;7018;50.838;4.226;2022-07-23T07:48:50;20.40;99.90
13896;DHT22;7018;50.838;4.226;2022-07-23T07:51:20;20.40;99.90
13896;DHT22;7018;50.838;4.226;2022-07-23T07:53:47;20.40;99.90
13896;DHT22;7018;50.838;4.226;2022-07-23T07:56:15;20.40;99.90
13896;DHT22;7018;50.838;4.226;2022-07-23T07:58:42;20.30;99.90
13896;DHT22;7018;50.838;4.226;2022-07-23T08:01:10;20.30;99.90
13896;DHT22;7018;50.838;4.226;2022-07-23T08:03:37;20.40;99.90
13896;DHT22;7018;50.838;4.226;2022-07-23T08:06:04;20.60;99.90
13896;DHT22;7018;50.838;4.226;2022-07-23T08:08:33;20.70;99.90
13896;DHT22;7018;50.838;4.226;2022-07-23T08:11:00;20.70;99.90
13896;DHT22;7018;50.838;4.226;2022-07-23T08:13:28;20.90;99.90
13896;DHT22;7018;50.838;4.226;2022-07-23T08:15:55;20.90;99.90
13896;DHT22;7018;50.838;4.226;2022-07-23T08:18:22;20.90;99.90
13896;DHT22;7018;50.838;4.226;2022-07-23T08:20:49;21.10;99.90
13896;DHT22;7018;50.838;4.226;2022-07-23T08:23:16;21.20;99.90
13896;DHT22;7018;50.838;4.226;2022-07-23T08:25:46;21.30;99.90
13896;DHT22;7018;50.838;4.226;2022-07-23T08:28:16;21.20;99.90
13896;DHT22;7018;50.838;4.226;2022-07-23T08:30:44;21.30;99.90
13896;DHT22;7018;50.838;4.226;2022-07-23T08:33:12;21.20;99.90
13896;DHT22;7018;50.838;4.226;2022-07-23T08:35:41;21.10;99.90
13896;DHT22;7018;50.838;4.226;2022-07-23T08:38:09;21.00;99.90
13896;DHT22;7018;50.838;4.226;2022-07-23T08:40:39;21.00;99.90
13896;DHT22;7018;50.838;4.226;2022-07-23T08:43:10;21.00;99.90
13896;DHT22;7018;50.838;4.226;2022-07-23T08:45:39;21.00;99.90
13896;DHT22;7018;50.838;4.226;2022-07-23T08:48:15;21.00;99.90
13896;DHT22;7018;50.838;4.226;2022-07-23T08:50:43;21.10;99.90
13896;DHT22;7018;50.838;4.226;2022-07-23T08:53:11;21.40;99.90
13896;DHT22;7018;50.838;4.226;2022-07-23T08:55:39;21.40;99.90
13896;DHT22;7018;50.838;4.226;2022-07-23T08:58:07;21.40;99.90
13896;DHT22;7018;50.838;4.226;2022-07-23T09:00:34;21.60;99.90
13896;DHT22;7018;50.838;4.226;2022-07-23T09:03:02;21.70;99.90
13896;DHT22;7018;50.838;4.226;2022-07-23T09:05:29;21.60;99.90
13896;DHT22;7018;50.838;4.226;2022-07-23T09:13:39;21.90;99.90
13896;DHT22;7018;50.838;4.226;2022-07-23T09:16:13;22.00;99.90
13896;DHT22;7018;50.838;4.226;2022-07-23T09:18:46;22.20;99.90
13896;DHT22;7018;50.838;4.226;2022-07-23T09:21:22;22.30;99.90
13896;DHT22;7018;50.838;4.226;2022-07-23T09:26:23;22.50;99.90
13896;DHT22;7018;50.838;4.226;2022-07-23T09:31:20;22.50;99.90
13896;DHT22;7018;50.838;4.226;2022-07-23T09:33:47;22.60;99.90
13896;DHT22;7018;50.838;4.226;2022-07-23T09:36:14;22.60;99.90
13896;DHT22;7018;50.838;4.226;2022-07-23T09:38:49;22.60;99.90
13896;DHT22;7018;50.838;4.226;2022-07-23T09:41:17;22.70;99.90
13896;DHT22;7018;50.838;4.226;2022-07-23T09:43:44;22.90;99.90
13896;DHT22;7018;50.838;4.226;2022-07-23T09:48:48;23.00;99.90
13896;DHT22;7018;50.838;4.226;2022-07-23T09:51:16;22.90;99.90
13896;DHT22;7018;50.838;4.226;2022-07-23T09:54:04;23.10;99.90
13896;DHT22;7018;50.838;4.226;2022-07-23T09:56:31;23.20;99.90
13896;DHT22;7018;50.838;4.226;2022-07-23T09:59:00;23.30;99.90
13896;DHT22;7018;50.838;4.226;2022-07-23T10:05:07;23.30;99.90
13896;DHT22;7018;50.838;4.226;2022-07-23T10:07:36;23.40;99.90
13896;DHT22;7018;50.838;4.226;2022-07-23T10:10:04;23.40;99.90
13896;DHT22;7018;50.838;4.226;2022-07-23T10:12:32;23.50;99.90
13896;DHT22;7018;50.838;4.226;2022-07-23T10:15:12;23.60;99.90
13896;DHT22;7018;50.838;4.226;2022-07-23T10:17:39;23.70;99.90
13896;DHT22;7018;50.838;4.226;2022-07-23T10:20:07;23.60;99.90
13896;DHT22;7018;50.838;4.226;2022-07-23T10:22:35;23.60;99.90
13896;DHT22;7018;50.838;4.226;2022-07-23T10:27:42;23.60;99.90
13896;DHT22;7018;50.838;4.226;2022-07-23T10:30:12;23.70;99.90
13896;DHT22;7018;50.838;4.226;2022-07-23T10:38:07;23.60;99.90
13896;DHT22;7018;50.838;4.226;2022-07-23T10:40:37;23.60;99.90
13896;DHT22;7018;50.838;4.226;2022-07-23T10:43:33;23.80;99.90
13896;DHT22;7018;50.838;4.226;2022-07-23T10:49:03;23.70;99.90
13896;DHT22;7018;50.838;4.226;2022-07-23T10:51:45;23.90;99.90
13896;DHT22;7018;50.838;4.226;2022-07-23T10:54:28;23.90;99.90
13896;DHT22;7018;50.838;4.226;2022-07-23T11:02:36;24.10;99.90
13896;DHT22;7018;50.838;4.226;2022-07-23T11:05:10;24.10;99.90
13896;DHT22;7018;50.838;4.226;2022-07-23T11:10:40;23.80;99.90
13896;DHT22;7018;50.838;4.226;2022-07-23T11:18:53;24.10;99.90
13896;DHT22;7018;50.838;4.226;2022-07-23T11:23:59;24.40;99.90
13896;DHT22;7018;50.838;4.226;2022-07-23T11:34:40;24.50;99.90
13896;DHT22;7018;50.838;4.226;2022-07-23T11:37:09;24.70;99.90
13896;DHT22;7018;50.838;4.226;2022-07-23T11:39:36;24.80;99.90
13896;DHT22;7018;50.838;4.226;2022-07-23T11:42:06;24.80;99.90
13896;DHT22;7018;50.838;4.226;2022-07-23T11:44:35;24.70;99.90
13896;DHT22;7018;50.838;4.226;2022-07-23T11:47:06;24.80;99.90
13896;DHT22;7018;50.838;4.226;2022-07-23T11:49:34;24.90;99.90
13896;DHT22;7018;50.838;4.226;2022-07-23T11:52:10;24.80;99.90
13896;DHT22;7018;50.838;4.226;2022-07-23T11:54:48;24.90;99.90
13896;DHT22;7018;50.838;4.226;2022-07-23T11:57:15;25.10;99.90
13896;DHT22;7018;50.838;4.226;2022-07-23T11:59:43;25.00;99.90
13896;DHT22;7018;50.838;4.226;2022-07-23T12:02:12;25.20;99.90
13896;DHT22;7018;50.838;4.226;2022-07-23T12:04:41;25.20;99.90
13896;DHT22;7018;50.838;4.226;2022-07-23T12:07:25;25.30;99.90
13896;DHT22;7018;50.838;4.226;2022-07-23T12:09:53;25.10;99.90
13896;DHT22;7018;50.838;4.226;2022-07-23T12:12:21;25.20;99.90
13896;DHT22;7018;50.838;4.226;2022-07-23T12:14:54;25.20;99.90
13896;DHT22;7018;50.838;4.226;2022-07-23T12:17:28;25.30;99.90
13896;DHT22;7018;50.838;4.226;2022-07-23T12:19:56;25.40;99.90
13896;DHT22;7018;50.838;4.226;2022-07-23T12:22:24;25.30;99.90
13896;DHT22;7018;50.838;4.226;2022-07-23T12:24:53;25.40;99.90
13896;DHT22;7018;50.838;4.226;2022-07-23T12:27:27;25.50;99.90
13896;DHT22;7018;50.838;4.226;2022-07-23T12:29:54;25.70;99.90
13896;DHT22;7018;50.838;4.226;2022-07-23T12:32:26;25.80;99.90
13896;DHT22;7018;50.838;4.226;2022-07-23T12:35:07;26.10;99.90
13896;DHT22;7018;50.838;4.226;2022-07-23T12:37:40;26.30;99.90
13896;DHT22;7018;50.838;4.226;2022-07-23T12:40:27;26.50;99.90
13896;DHT22;7018;50.838;4.226;2022-07-23T12:42:56;26.60;99.90
13896;DHT22;7018;50.838;4.226;2022-07-23T12:45:24;26.70;99.90
13896;DHT22;7018;50.838;4.226;2022-07-23T12:47:59;26.70;99.90
13896;DHT22;7018;50.838;4.226;2022-07-23T12:50:34;26.80;99.90
13896;DHT22;7018;50.838;4.226;2022-07-23T12:53:05;26.80;99.90
13896;DHT22;7018;50.838;4.226;2022-07-23T12:55:37;26.90;99.90
13896;DHT22;7018;50.838;4.226;2022-07-23T12:58:21;26.90;99.90
13896;DHT22;7018;50.838;4.226;2022-07-23T13:03:22;26.70;99.90
13896;DHT22;7018;50.838;4.226;2022-07-23T13:05:51;26.90;99.90
13896;DHT22;7018;50.838;4.226;2022-07-23T13:08:18;27.10;99.90
13896;DHT22;7018;50.838;4.226;2022-07-23T13:10:46;27.10;99.90
13896;DHT22;7018;50.838;4.226;2022-07-23T13:13:22;27.30;99.90
13896;DHT22;7018;50.838;4.226;2022-07-23T13:15:52;27.10;99.90
13896;DHT22;7018;50.838;4.226;2022-07-23T13:18:21;27.10;99.90
13896;DHT22;7018;50.838;4.226;2022-07-23T13:20:49;26.90;99.90
13896;DHT22;7018;50.838;4.226;2022-07-23T13:23:18;27.10;99.90
13896;DHT22;7018;50.838;4.226;2022-07-23T13:25:52;27.30;99.90
13896;DHT22;7018;50.838;4.226;2022-07-23T13:28:21;27.30;99.90
13896;DHT22;7018;50.838;4.226;2022-07-23T13:30:49;27.30;99.90
13896;DHT22;7018;50.838;4.226;2022-07-23T13:33:18;27.40;99.90
13896;DHT22;7018;50.838;4.226;2022-07-23T13:35:46;27.50;99.90
13896;DHT22;7018;50.838;4.226;2022-07-23T13:38:13;27.40;99.90
13896;DHT22;7018;50.838;4.226;2022-07-23T13:40:42;27.50;99.90
13896;DHT22;7018;50.838;4.226;2022-07-23T13:43:10;27.70;99.90
13896;DHT22;7018;50.838;4.226;2022-07-23T13:45:38;27.90;99.90
13896;DHT22;7018;50.838;4.226;2022-07-23T13:48:06;27.90;99.90
13896;DHT22;7018;50.838;4.226;2022-07-23T13:50:33;28.00;99.90
13896;DHT22;7018;50.838;4.226;2022-07-23T13:53:03;28.00;99.90
13896;DHT22;7018;50.838;4.226;2022-07-23T13:55:31;28.20;99.90
13896;DHT22;7018;50.838;4.226;2022-07-23T13:57:58;28.40;99.90
13896;DHT22;7018;50.838;4.226;2022-07-23T14:00:25;28.50;99.90
13896;DHT22;7018;50.838;4.226;2022-07-23T14:03:08;28.40;99.90
13896;DHT22;7018;50.838;4.226;2022-07-23T14:05:35;28.40;99.90
13896;DHT22;7018;50.838;4.226;2022-07-23T14:08:03;28.20;99.90
13896;DHT22;7018;50.838;4.226;2022-07-23T14:10:31;27.90;99.90
13896;DHT22;7018;50.838;4.226;2022-07-23T14:12:58;27.30;99.90
13896;DHT22;7018;50.838;4.226;2022-07-23T14:15:27;27.20;99.90
13896;DHT22;7018;50.838;4.226;2022-07-23T14:17:54;27.50;99.90
13896;DHT22;7018;50.838;4.226;2022-07-23T14:20:22;27.70;99.90
13896;DHT22;7018;50.838;4.226;2022-07-23T14:22:50;27.70;99.90
13896;DHT22;7018;50.838;4.226;2022-07-23T14:25:17;27.50;99.90
13896;DHT22;7018;50.838;4.226;2022-07-23T14:27:46;27.50;99.90
13896;DHT22;7018;50.838;4.226;2022-07-23T14:30:14;27.70;99.90
13896;DHT22;7018;50.838;4.226;2022-07-23T14:32:41;27.80;99.90
13896;DHT22;7018;50.838;4.226;2022-07-23T14:35:09;27.80;99.90
13896;DHT22;7018;50.838;4.226;2022-07-23T14:37:36;27.70;99.90
13896;DHT22;7018;50.838;4.226;2022-07-23T14:40:05;27.70;99.90
13896;DHT22;7018;50.838;4.226;2022-07-23T14:42:33;27.80;99.90
13896;DHT22;7018;50.838;4.226;2022-07-23T14:45:00;27.80;99.90
13896;DHT22;7018;50.838;4.226;2022-07-23T14:47:27;27.50;99.90
13896;DHT22;7018;50.838;4.226;2022-07-23T14:49:55;27.50;99.90
13896;DHT22;7018;50.838;4.226;2022-07-23T14:52:23;27.70;99.90
13896;DHT22;7018;50.838;4.226;2022-07-23T14:54:50;27.90;99.90
13896;DHT22;7018;50.838;4.226;2022-07-23T14:57:18;28.10;99.90
13896;DHT22;7018;50.838;4.226;2022-07-23T14:59:47;28.20;99.90
13896;DHT22;7018;50.838;4.226;2022-07-23T15:02:15;27.90;99.90
13896;DHT22;7018;50.838;4.226;2022-07-23T15:04:42;28.10;99.90
13896;DHT22;7018;50.838;4.226;2022-07-23T15:07:10;28.20;99.90
13896;DHT22;7018;50.838;4.226;2022-07-23T15:09:37;28.20;99.90
13896;DHT22;7018;50.838;4.226;2022-07-23T15:12:05;28.30;99.90
13896;DHT22;7018;50.838;4.226;2022-07-23T15:14:32;28.30;99.90
13896;DHT22;7018;50.838;4.226;2022-07-23T15:17:00;28.50;99.90
13896;DHT22;7018;50.838;4.226;2022-07-23T15:19:28;28.80;99.90
13896;DHT22;7018;50.838;4.226;2022-07-23T15:21:55;28.80;99.90
13896;DHT22;7018;50.838;4.226;2022-07-23T15:24:22;28.60;99.90
13896;DHT22;7018;50.838;4.226;2022-07-23T15:26:50;28.50;99.90
13896;DHT22;7018;50.838;4.226;2022-07-23T15:29:18;28.40;99.90
13896;DHT22;7018;50.838;4.226;2022-07-23T15:31:46;28.30;99.90
13896;DHT22;7018;50.838;4.226;2022-07-23T15:34:14;28.10;99.90
13896;DHT22;7018;50.838;4.226;2022-07-23T15:36:41;28.00;99.90
13896;DHT22;7018;50.838;4.226;2022-07-23T15:39:08;28.20;99.90
13896;DHT22;7018;50.838;4.226;2022-07-23T15:41:36;28.10;99.90
13896;DHT22;7018;50.838;4.226;2022-07-23T15:44:03;28.10;99.90
13896;DHT22;7018;50.838;4.226;2022-07-23T15:46:31;28.00;99.90
13896;DHT22;7018;50.838;4.226;2022-07-23T15:48:58;27.90;99.90
13896;DHT22;7018;50.838;4.226;2022-07-23T15:51:27;27.90;99.90
13896;DHT22;7018;50.838;4.226;2022-07-23T15:53:55;28.10;99.90
13896;DHT22;7018;50.838;4.226;2022-07-23T15:56:23;28.20;99.90
13896;DHT22;7018;50.838;4.226;2022-07-23T15:58:50;28.60;99.90
13896;DHT22;7018;50.838;4.226;2022-07-23T16:01:18;28.70;99.90
13896;DHT22;7018;50.838;4.226;2022-07-23T16:03:45;29.00;99.90
13896;DHT22;7018;50.838;4.226;2022-07-23T16:06:13;28.90;99.90
13896;DHT22;7018;50.838;4.226;2022-07-23T16:08:41;28.90;99.90
13896;DHT22;7018;50.838;4.226;2022-07-23T16:11:09;28.50;99.90
13896;DHT22;7018;50.838;4.226;2022-07-23T16:13:36;28.50;99.90
13896;DHT22;7018;50.838;4.226;2022-07-23T16:16:04;28.70;99.90
13896;DHT22;7018;50.838;4.226;2022-07-23T16:18:31;28.70;99.90
13896;DHT22;7018;50.838;4.226;2022-07-23T16:20:59;28.60;99.90
13896;DHT22;7018;50.838;4.226;2022-07-23T16:23:30;28.70;99.90
13896;DHT22;7018;50.838;4.226;2022-07-23T16:25:57;28.80;99.90
13896;DHT22;7018;50.838;4.226;2022-07-23T16:28:24;28.90;99.90
13896;DHT22;7018;50.838;4.226;2022-07-23T16:30:52;29.10;99.90
13896;DHT22;7018;50.838;4.226;2022-07-23T16:33:19;29.20;99.90
13896;DHT22;7018;50.838;4.226;2022-07-23T16:35:47;29.20;99.90
13896;DHT22;7018;50.838;4.226;2022-07-23T16:38:14;29.50;99.90
13896;DHT22;7018;50.838;4.226;2022-07-23T16:40:41;29.80;99.90
13896;DHT22;7018;50.838;4.226;2022-07-23T16:43:08;29.90;99.90
13896;DHT22;7018;50.838;4.226;2022-07-23T16:45:35;30.00;99.90
13896;DHT22;7018;50.838;4.226;2022-07-23T16:48:03;30.10;99.90